Time;durP1;ratioP1;P1;durP2;ratioP2;P2;SDS_P1;SDS_P2;PMS_P1;PMS_P2;Temp;Humidity;BMP_temperature;BMP_pressure;BME280_temperature;BME280_humidity;BME280_pressure;Samples;Min_cycle;Max_cycle;Signal;HPM_P1;HPM_P2
2023/07/30 00:00:45;;;;;;;22.25;10.27;;;;;;;22.86;52.86;99753.56;5103740;28;20100;-24
2023/07/30 00:03:10;;;;;;;15.13;6.88;;;;;;;22.99;50.07;99763.59;5104088;28;20074;-23
2023/07/30 00:05:36;;;;;;;24.17;9.35;;;;;;;23.16;51.73;99765.66;5104234;28;20026;-23
2023/07/30 00:08:01;;;;;;;18.27;9.07;;;;;;;22.95;49.86;99764.53;5104418;28;20035;-23
2023/07/30 00:10:26;;;;;;;39.38;15.43;;;;;;;23.01;51.16;99755.13;5104498;28;20107;-25
2023/07/30 00:12:52;;;;;;;32.38;12.90;;;;;;;23.30;52.36;99753.91;5104502;28;20034;-25
2023/07/30 00:15:17;;;;;;;33.17;14.68;;;;;;;22.95;52.52;99746.28;5104150;28;20035;-25
2023/07/30 00:17:45;;;;;;;43.13;17.52;;;;;;;22.80;53.69;99747.47;5103968;28;20034;-25
2023/07/30 00:20:10;;;;;;;36.25;16.05;;;;;;;22.89;53.72;99744.81;5104035;28;20488;-25
2023/07/30 00:22:36;;;;;;;31.67;13.60;;;;;;;22.78;53.45;99757.84;5104339;28;20026;-25
2023/07/30 00:25:01;;;;;;;35.47;13.10;;;;;;;22.62;54.79;99756.59;5104316;28;20510;-26
2023/07/30 00:27:27;;;;;;;29.08;11.68;;;;;;;22.76;54.34;99753.81;5107868;28;20024;-25
2023/07/30 00:29:52;;;;;;;30.98;12.18;;;;;;;22.64;54.57;99748.94;5107841;28;20023;-26
2023/07/30 00:32:17;;;;;;;26.00;10.43;;;;;;;22.60;54.98;99742.50;5108130;28;20058;-25
2023/07/30 00:34:43;;;;;;;16.55;7.47;;;;;;;22.54;53.84;99749.16;5107932;28;20023;-25
2023/07/30 00:37:11;;;;;;;16.75;8.07;;;;;;;;;;5108086;28;20468;-25
2023/07/30 00:39:36;;;;;;;13.82;7.03;;;;;;;22.70;53.69;99755.03;5107919;28;20035;-26
2023/07/30 00:42:02;;;;;;;14.60;6.50;;;;;;;22.73;53.58;99740.84;5108035;28;20020;-25
2023/07/30 00:44:27;;;;;;;10.27;5.60;;;;;;;22.55;53.32;99757.00;5108073;28;20547;-25
2023/07/30 00:46:53;;;;;;;11.70;5.97;;;;;;;22.73;53.26;99757.94;5107728;28;20400;-29
2023/07/30 00:49:18;;;;;;;12.57;5.88;;;;;;;22.44;53.05;99764.56;5107617;28;20432;-25
2023/07/30 00:51:45;;;;;;;14.63;6.05;;;;;;;22.42;54.72;99757.84;5107768;28;20439;-25
2023/07/30 00:54:11;;;;;;;11.25;5.78;;;;;;;22.41;54.56;99762.47;5107920;28;20062;-24
2023/07/30 00:56:37;;;;;;;13.32;6.70;;;;;;;22.75;54.48;99749.50;5107664;28;20028;-25
2023/07/30 00:59:03;;;;;;;14.70;6.47;;;;;;;22.95;53.67;99764.53;5107678;28;20015;-26
2023/07/30 01:01:33;;;;;;;18.40;8.63;;;;;;;22.23;53.76;99761.50;5107178;28;20040;-25
2023/07/30 01:03:58;;;;;;;19.88;10.93;;;;;;;22.48;55.11;99766.69;5107944;28;20035;-25
2023/07/30 01:06:24;;;;;;;71.38;34.53;;;;;;;22.12;55.61;99781.00;5107406;28;20409;-21
2023/07/30 01:08:51;;;;;;;20.52;9.98;;;;;;;21.67;57.03;99776.16;5106197;28;20471;-24
2023/07/30 01:11:18;;;;;;;16.65;8.18;;;;;;;21.35;58.00;99776.94;5107317;28;20562;-25
2023/07/30 01:13:46;;;;;;;21.80;9.90;;;;;;;21.19;58.38;99771.00;5106984;28;20047;-24
2023/07/30 01:16:13;;;;;;;20.20;9.48;;;;;;;21.19;59.48;99766.38;5107458;28;20117;-24
2023/07/30 01:18:39;;;;;;;28.83;14.55;;;;;;;20.95;58.95;99771.13;5107546;28;20027;-24
2023/07/30 01:21:06;;;;;;;27.38;14.18;;;;;;;21.25;59.44;99778.75;5107280;28;20027;-24
2023/07/30 01:23:35;;;;;;;41.00;19.58;;;;;;;21.14;58.20;99774.59;5107079;28;20015;-24
2023/07/30 01:26:10;;;;;;;64.90;32.08;;;;;;;21.31;57.13;99779.47;5106874;28;20151;-26
2023/07/30 01:28:39;;;;;;;179.85;81.15;;;;;;;21.09;58.89;99771.97;5106809;28;20031;-24
2023/07/30 01:31:06;;;;;;;334.55;147.20;;;;;;;21.19;58.67;99763.66;5106875;28;20045;-24
2023/07/30 01:33:32;;;;;;;159.17;75.33;;;;;;;21.03;59.97;99763.09;5107074;28;20027;-26
2023/07/30 01:35:58;;;;;;;111.95;51.20;;;;;;;21.23;58.86;99761.97;5106373;28;20028;-25
2023/07/30 01:38:26;;;;;;;37.00;19.20;;;;;;;21.17;60.16;99768.59;5106788;28;20031;-27
2023/07/30 01:40:54;;;;;;;30.15;14.82;;;;;;;21.14;58.98;99763.75;5106934;28;20510;-24
2023/07/30 01:43:19;;;;;;;18.98;8.55;;;;;;;21.12;59.25;99774.06;5107101;28;20039;-24
2023/07/30 01:45:45;;;;;;;14.93;7.22;;;;;;;21.21;58.30;99766.88;5106745;28;20084;-22
2023/07/30 01:48:10;;;;;;;11.32;6.07;;;;;;;21.15;59.87;99778.91;5106582;28;20062;-23
2023/07/30 01:50:35;;;;;;;18.23;9.35;;;;;;;21.49;58.51;99785.16;5106497;27;20050;-23
2023/07/30 01:53:01;;;;;;;22.00;10.32;;;;;;;21.69;58.45;99784.00;5106750;28;20030;-24
2023/07/30 01:55:26;;;;;;;12.00;6.97;;;;;;;21.70;57.83;99785.59;5106425;28;20062;-23
2023/07/30 01:57:54;;;;;;;18.08;8.48;;;;;;;21.55;58.63;99784.75;5106713;28;20039;-23
2023/07/30 02:00:19;;;;;;;9.18;5.43;;;;;;;21.75;57.20;99785.50;5106601;28;20098;-24
2023/07/30 02:02:45;;;;;;;9.23;5.28;;;;;;;21.53;57.91;99788.88;5106333;28;20502;-24
2023/07/30 02:05:10;;;;;;;17.40;9.48;;;;;;;21.38;59.40;99785.31;5106556;28;20031;-24
2023/07/30 02:07:38;;;;;;;20.40;10.90;;;;;;;21.65;58.20;99779.16;5106397;28;20028;-24
2023/07/30 02:10:04;;;;;;;22.92;11.38;;;;;;;21.35;59.55;99785.91;5106209;28;20477;-24
2023/07/30 02:12:30;;;;;;;21.20;10.73;;;;;;;21.31;59.61;99784.06;5106304;28;20516;-23
2023/07/30 02:14:55;;;;;;;19.05;10.00;;;;;;;21.43;59.55;99784.44;5106108;27;20547;-23
2023/07/30 02:17:20;;;;;;;19.17;10.40;;;;;;;21.40;58.99;99787.72;5106320;28;20027;-22
2023/07/30 02:19:49;;;;;;;21.20;11.45;;;;;;;21.42;59.54;99785.53;5106213;28;20024;-23
2023/07/30 02:22:14;;;;;;;25.55;11.98;;;;;;;21.19;60.06;99782.66;5105837;28;20059;-23
2023/07/30 02:24:40;;;;;;;23.48;12.48;;;;;;;20.90;60.81;99795.56;5105997;28;20079;-23
2023/07/30 02:27:12;;;;;;;27.05;15.35;;;;;;;21.11;60.58;99791.47;5105906;28;20024;-23
2023/07/30 02:29:38;;;;;;;28.10;14.05;;;;;;;21.20;59.87;99795.09;5105989;28;20020;-23
2023/07/30 02:32:04;;;;;;;29.67;14.80;;;;;;;21.11;60.82;99796.88;5105933;28;20031;-24
2023/07/30 02:34:29;;;;;;;29.98;14.20;;;;;;;21.30;59.84;99787.91;5105532;28;20023;-25
2023/07/30 02:36:54;;;;;;;21.55;12.00;;;;;;;21.21;59.79;99785.06;5105805;28;20020;-24
2023/07/30 02:39:22;;;;;;;24.08;11.10;;;;;;;20.97;60.32;99796.03;5105737;28;20506;-24
2023/07/30 02:41:48;;;;;;;18.17;9.27;;;;;;;20.74;61.46;99803.13;5105768;28;20701;-23
2023/07/30 02:44:13;;;;;;;22.17;10.02;;;;;;;20.78;60.34;99802.25;5105499;28;20596;-23
2023/07/30 02:46:39;;;;;;;17.20;9.18;;;;;;;20.81;60.69;99793.53;5105631;28;20035;-24
2023/07/30 02:49:04;;;;;;;20.13;9.50;;;;;;;20.81;61.02;99798.16;5104564;28;20408;-23
2023/07/30 02:51:30;;;;;;;18.88;9.00;;;;;;;21.33;59.68;99798.16;5105301;28;20467;-24
2023/07/30 02:54:01;;;;;;;19.50;8.77;;;;;;;21.19;59.83;99788.06;5105477;28;20032;-24
2023/07/30 02:56:26;;;;;;;14.23;8.15;;;;;;;21.21;59.17;99801.34;5105097;28;20389;-24
2023/07/30 02:58:51;;;;;;;19.38;8.38;;;;;;;21.37;58.75;99799.97;5105353;28;20549;-27
2023/07/30 03:01:17;;;;;;;21.40;9.32;;;;;;;21.21;59.50;99802.13;5104892;28;20491;-24
2023/07/30 03:03:45;;;;;;;16.75;8.93;;;;;;;21.43;58.81;99798.81;5105338;28;20024;-24
2023/07/30 03:06:10;;;;;;;;;;;;;;;21.32;58.25;99810.09;5105847;28;20038;-23
2023/07/30 03:08:36;;;;;;;12.95;7.10;;;;;;;21.22;59.58;99806.44;5105376;28;19916;-24
2023/07/30 03:11:04;;;;;;;15.55;7.60;;;;;;;20.96;60.26;99816.88;5104725;28;20027;-24
2023/07/30 03:13:30;;;;;;;14.80;6.55;;;;;;;21.02;59.97;99801.34;5105251;28;20034;-24
2023/07/30 03:15:57;;;;;;;15.10;6.65;;;;;;;20.96;60.76;99816.06;5105076;28;20031;-23
2023/07/30 03:18:23;;;;;;;14.18;7.25;;;;;;;20.74;60.82;99819.38;5105296;28;20028;-23
2023/07/30 03:20:48;;;;;;;13.05;6.70;;;;;;;20.88;60.70;99814.84;5104840;28;20514;-23
2023/07/30 03:23:14;;;;;;;16.38;7.03;;;;;;;20.84;61.67;99821.94;5104727;28;20150;-23
2023/07/30 03:25:39;;;;;;;15.50;7.10;;;;;;;20.80;61.11;99824.44;5105013;28;20019;-23
2023/07/30 03:28:05;;;;;;;13.88;6.93;;;;;;;20.53;61.60;99829.66;5104683;28;20457;-24
2023/07/30 03:30:30;;;;;;;10.98;6.18;;;;;;;20.44;61.67;99827.59;5104840;28;20027;-23
2023/07/30 03:32:55;;;;;;;17.00;6.90;;;;;;;20.64;61.67;99825.75;5104924;28;20458;-24
2023/07/30 03:35:21;;;;;;;15.63;6.80;;;;;;;20.60;61.16;99824.72;5104566;28;20106;-22
2023/07/30 03:37:46;;;;;;;12.52;6.45;;;;;;;20.74;60.81;99825.63;5104885;28;20020;-25
2023/07/30 03:40:12;;;;;;;13.98;5.95;;;;;;;20.96;59.79;99825.00;5104466;28;20408;-23
2023/07/30 03:42:37;;;;;;;15.63;7.53;;;;;;;21.04;60.39;99829.81;5104840;28;20052;-24
2023/07/30 03:45:03;;;;;;;18.50;7.30;;;;;;;21.14;60.01;99828.00;5104580;28;20262;-26
2023/07/30 03:47:29;;;;;;;18.13;7.35;;;;;;;21.36;59.45;99825.47;5103977;28;20515;-23
2023/07/30 03:49:54;;;;;;;11.75;5.78;;;;;;;21.28;58.75;99818.81;5104825;28;20024;-28
2023/07/30 03:52:19;;;;;;;17.38;6.10;;;;;;;21.20;58.53;99822.22;5104732;28;20035;-23
2023/07/30 03:54:45;;;;;;;16.58;5.90;;;;;;;20.98;59.51;99830.94;5104373;28;20143;-23
2023/07/30 03:57:10;;;;;;;14.55;6.57;;;;;;;21.07;60.50;99833.81;5104305;28;20076;-23
2023/07/30 03:59:36;;;;;;;15.25;6.63;;;;;;;20.96;60.93;99832.34;5105583;28;20065;-22
2023/07/30 04:02:01;;;;;;;18.17;7.18;;;;;;;21.08;60.93;99835.41;5108385;28;20395;-23
2023/07/30 04:04:26;;;;;;;31.27;10.85;;;;;;;20.99;60.72;99843.41;5108583;28;20020;-24
2023/07/30 04:06:52;;;;;;;47.25;16.63;;;;;;;20.74;61.56;99841.06;5108595;28;20023;-23
2023/07/30 04:09:17;;;;;;;56.15;19.45;;;;;;;20.84;61.82;99847.16;5108671;28;20059;-24
2023/07/30 04:11:45;;;;;;;43.35;15.70;;;;;;;20.95;60.58;99847.00;5108223;28;20114;-24
2023/07/30 04:14:10;;;;;;;21.40;10.27;;;;;;;21.25;59.79;99846.56;5108620;28;20024;-23
2023/07/30 04:16:36;;;;;;;19.83;8.85;;;;;;;21.54;58.32;99842.84;5108516;28;20048;-24
2023/07/30 04:19:04;;;;;;;13.02;7.20;;;;;;;21.66;57.48;99851.34;5108450;28;20023;-22
2023/07/30 04:21:29;;;;;;;23.40;9.55;;;;;;;21.70;58.23;99850.72;5108209;28;20024;-24
2023/07/30 04:23:55;;;;;;;19.42;8.13;;;;;;;21.78;57.52;99853.56;5108301;28;20412;-24
2023/07/30 04:26:20;;;;;;;12.68;6.35;;;;;;;21.83;57.01;99845.31;5108443;28;20393;-23
2023/07/30 04:28:48;;;;;;;12.15;5.45;;;;;;;21.65;56.40;99849.72;5108021;28;20020;-24
2023/07/30 04:31:13;;;;;;;13.73;6.13;;;;;;;21.56;56.75;99859.66;5108097;27;20028;-23
2023/07/30 04:33:41;;;;;;;13.15;5.10;;;;;;;21.76;55.26;99858.50;5107823;28;20024;-23
2023/07/30 04:36:07;;;;;;;9.85;5.00;;;;;;;21.81;55.28;99863.81;5107105;28;20036;-23
2023/07/30 04:38:33;;;;;;;12.38;4.95;;;;;;;21.82;54.86;99862.72;5108261;28;20059;-25
2023/07/30 04:40:58;;;;;;;35.28;17.63;;;;;;;21.75;58.64;99859.59;5107370;28;20077;-24
2023/07/30 04:43:24;;;;;;;40.80;19.70;;;;;;;21.33;61.54;99865.94;5107929;28;20035;-24
2023/07/30 04:45:49;;;;;;;30.30;14.23;;;;;;;21.41;61.15;99863.41;5107982;28;20035;-24
2023/07/30 04:48:15;;;;;;;28.25;12.88;;;;;;;21.48;61.13;99865.75;5107953;28;20028;-24
2023/07/30 04:50:41;;;;;;;27.42;12.38;;;;;;;21.66;59.35;99862.19;5107857;28;20757;-25
2023/07/30 04:53:08;;;;;;;28.58;12.85;;;;;;;21.52;59.97;99869.47;5107391;28;20500;-24
2023/07/30 04:55:33;;;;;;;26.15;12.60;;;;;;;21.57;59.65;99865.88;5107437;28;20026;-24
2023/07/30 04:57:59;;;;;;;21.30;9.98;;;;;;;21.85;58.59;99870.25;5107736;28;20031;-23
2023/07/30 05:00:24;;;;;;;17.05;9.50;;;;;;;21.77;58.43;99870.16;5107720;28;20138;-23
2023/07/30 05:02:50;;;;;;;15.45;7.07;;;;;;;22.15;56.81;99873.53;5106664;28;20029;-23
2023/07/30 05:05:15;;;;;;;9.85;4.90;;;;;;;22.15;55.55;99867.28;5107642;27;20024;-24
2023/07/30 05:07:40;;;;;;;12.40;5.63;;;;;;;22.26;55.56;99874.16;5107880;28;20039;-24
2023/07/30 05:10:10;;;;;;;11.55;6.35;;;;;;;22.29;55.69;99875.47;5107204;28;20031;-24
2023/07/30 05:12:36;;;;;;;13.55;5.57;;;;;;;22.30;55.05;99883.31;5106219;28;20023;-25
2023/07/30 05:15:03;;;;;;;9.18;5.68;;;;;;;22.59;54.85;99877.56;5107389;28;20107;-26
2023/07/30 05:17:29;;;;;;;11.40;6.32;;;;;;;22.90;54.12;99867.94;5107053;28;20055;-25
2023/07/30 05:19:54;;;;;;;13.50;5.85;;;;;;;23.22;52.74;99880.59;5107570;28;20454;-26
2023/07/30 05:22:20;;;;;;;13.00;6.38;;;;;;;23.26;52.72;99873.41;5107506;28;20024;-25
2023/07/30 05:24:45;;;;;;;13.73;6.30;;;;;;;23.50;52.49;99873.13;5107200;28;20490;-24
2023/07/30 05:27:13;;;;;;;16.05;6.50;;;;;;;23.49;53.29;99879.66;5106797;28;20030;-25
2023/07/30 05:29:40;;;;;;;10.60;6.13;;;;;;;23.60;52.16;99878.31;5107072;28;20039;-24
2023/07/30 05:32:06;;;;;;;;;;;;;;;23.76;51.39;99869.72;5107973;28;20070;-25
2023/07/30 05:34:31;;;;;;;14.25;8.90;;;;;;;23.49;51.79;99881.59;5106732;28;19981;-24
2023/07/30 05:36:59;;;;;;;21.35;11.10;;;;;;;23.71;49.75;99880.78;5107009;27;20036;-27
2023/07/30 05:39:26;;;;;;;18.95;10.63;;;;;;;23.95;49.93;99878.53;5106959;28;20114;-24
2023/07/30 05:41:51;;;;;;;18.27;9.25;;;;;;;23.98;47.94;99869.72;5107185;28;20428;-23
2023/07/30 05:44:19;;;;;;;14.45;5.80;;;;;;;23.96;48.06;99874.69;5106194;28;20023;-22
2023/07/30 05:46:46;;;;;;;7.28;4.72;;;;;;;24.07;47.35;99858.88;5107020;28;20031;-24
2023/07/30 05:49:12;;;;;;;9.18;4.57;;;;;;;24.42;46.57;99872.63;5106729;28;20114;-24
2023/07/30 05:51:37;;;;;;;8.50;4.28;;;;;;;24.71;46.54;99879.47;5106134;28;20142;-24
2023/07/30 05:54:03;;;;;;;8.20;4.85;;;;;;;24.85;45.67;99880.91;5106062;28;20035;-23
2023/07/30 05:56:28;;;;;;;9.23;4.53;;;;;;;25.03;45.72;99873.56;5106439;28;20034;-24
2023/07/30 05:58:53;;;;;;;7.38;4.18;;;;;;;25.07;45.21;99876.47;5105774;28;20417;-24
2023/07/30 06:01:23;;;;;;;9.85;4.10;;;;;;;25.30;44.49;99874.38;5097409;28;20130;-23
2023/07/30 06:03:49;;;;;;;7.95;4.32;;;;;;;25.18;44.07;99880.47;5101517;28;20027;-23
2023/07/30 06:06:14;;;;;;;9.38;4.40;;;;;;;25.12;44.36;99879.00;5106214;28;20023;-23
2023/07/30 06:08:40;;;;;;;9.15;4.50;;;;;;;25.06;44.23;99872.09;5106642;28;20478;-25
2023/07/30 06:11:05;;;;;;;6.63;3.72;;;;;;;24.74;45.17;99876.88;5105794;28;20024;-25
2023/07/30 06:13:31;;;;;;;6.78;4.20;;;;;;;25.09;44.59;99876.94;5105844;28;20022;-25
2023/07/30 06:15:56;;;;;;;7.95;3.97;;;;;;;25.31;43.44;99873.25;5106135;28;20023;-25
2023/07/30 06:18:21;;;;;;;6.18;3.60;;;;;;;25.45;43.69;99868.41;5105950;28;20032;-25
2023/07/30 06:20:47;;;;;;;7.10;3.95;;;;;;;25.73;42.82;99867.25;5105964;28;20030;-26
2023/07/30 06:23:12;;;;;;;8.10;4.03;;;;;;;25.75;42.60;99868.53;5106212;28;20102;-25
2023/07/30 06:25:38;;;;;;;7.65;3.75;;;;;;;25.76;42.34;99867.38;5105909;28;20388;-25
2023/07/30 06:28:05;;;;;;;7.30;4.07;;;;;;;26.05;41.81;99869.44;5106012;28;20088;-26
2023/07/30 06:30:32;;;;;;;7.83;3.60;;;;;;;26.24;40.56;99868.22;5105901;28;20396;-25
2023/07/30 06:32:58;;;;;;;7.18;3.95;;;;;;;26.17;41.26;99860.50;5106005;28;20064;-25
2023/07/30 06:35:23;;;;;;;6.93;3.65;;;;;;;26.23;42.08;99858.41;5105727;28;20028;-24
2023/07/30 06:37:50;;;;;;;6.55;3.75;;;;;;;26.17;42.19;99855.06;5105648;28;20461;-25
2023/07/30 06:40:16;;;;;;;7.25;3.95;;;;;;;26.36;41.76;99857.38;5105535;28;20027;-24
2023/07/30 06:42:41;;;;;;;8.55;3.75;;;;;;;26.69;39.76;99853.22;5105428;28;20699;-26
2023/07/30 06:45:07;;;;;;;8.93;3.72;;;;;;;26.70;40.45;99852.84;5105684;28;20077;-25
2023/07/30 06:47:33;;;;;;;8.45;3.88;;;;;;;26.76;39.91;99854.25;5105133;27;20032;-25
2023/07/30 06:49:58;;;;;;;7.32;3.60;;;;;;;26.82;40.73;99855.66;5105142;28;20019;-24
2023/07/30 06:52:26;;;;;;;10.15;4.00;;;;;;;27.10;39.52;99852.41;5105800;28;20023;-25
2023/07/30 06:54:59;;;;;;;8.13;4.38;;;;;;;27.28;40.22;99852.25;5105450;28;20027;-24
2023/07/30 06:57:24;;;;;;;9.80;4.50;;;;;;;27.15;40.89;99849.44;5105133;28;20035;-25
2023/07/30 06:59:49;;;;;;;9.18;4.38;;;;;;;27.34;40.63;99845.44;5104529;28;20043;-24
2023/07/30 07:02:15;;;;;;;13.65;5.25;;;;;;;27.53;38.67;99853.16;5104078;28;20519;-25
2023/07/30 07:04:40;;;;;;;9.15;4.15;;;;;;;27.64;39.33;99846.09;5104925;28;20147;-24
2023/07/30 07:07:06;;;;;;;9.95;4.32;;;;;;;27.62;39.88;99834.69;5105091;28;20083;-24
2023/07/30 07:09:31;;;;;;;6.75;4.35;;;;;;;27.65;38.39;99845.78;5105269;28;20074;-23
2023/07/30 07:11:58;;;;;;;9.38;3.95;;;;;;;27.89;39.43;99838.78;5104783;28;20032;-26
2023/07/30 07:14:26;;;;;;;8.75;4.00;;;;;;;27.90;39.08;99840.34;5105363;28;20147;-24
2023/07/30 07:16:53;;;;;;;8.63;4.32;;;;;;;27.95;38.17;99837.41;5104733;28;20508;-24
2023/07/30 07:19:19;;;;;;;8.95;3.83;;;;;;;28.22;38.16;99829.66;5104739;28;20535;-24
2023/07/30 07:21:46;;;;;;;8.75;3.42;;;;;;;28.18;37.55;99828.72;5105188;28;20039;-24
2023/07/30 07:24:12;;;;;;;7.78;2.95;;;;;;;27.91;38.78;99820.03;5104916;28;20051;-26
2023/07/30 07:26:37;;;;;;;6.28;3.47;;;;;;;28.28;38.02;99821.97;5104978;28;20086;-24
2023/07/30 07:29:03;;;;;;;6.95;3.38;;;;;;;28.37;37.01;99820.72;5104706;28;20084;-25
2023/07/30 07:31:28;;;;;;;6.80;3.00;;;;;;;28.55;36.51;99826.78;5104983;28;20024;-26
2023/07/30 07:33:54;;;;;;;6.57;2.97;;;;;;;28.58;37.55;99819.78;5103849;28;20424;-25
2023/07/30 07:36:19;;;;;;;7.15;3.15;;;;;;;28.79;37.14;99814.13;5104035;28;20028;-28
2023/07/30 07:38:45;;;;;;;4.40;2.58;;;;;;;29.29;36.14;99809.28;5104613;28;20026;-25
2023/07/30 07:41:17;;;;;;;4.97;2.47;;;;;;;29.20;35.91;99821.22;5104877;28;20019;-26
2023/07/30 07:43:43;;;;;;;8.05;2.80;;;;;;;29.29;35.90;99814.78;5104908;28;20556;-24
2023/07/30 07:46:13;;;;;;;4.93;3.00;;;;;;;29.21;35.95;99814.56;5104834;28;20034;-25
2023/07/30 07:48:42;;;;;;;4.95;2.58;;;;;;;29.49;35.15;99813.75;5104487;28;20028;-24
2023/07/30 07:51:11;;;;;;;6.10;3.15;;;;;;;29.63;34.78;99811.38;5104635;28;20024;-27
2023/07/30 07:53:38;;;;;;;6.88;3.17;;;;;;;29.81;33.82;99808.28;5104160;28;20126;-24
2023/07/30 07:56:03;;;;;;;7.27;2.90;;;;;;;30.29;34.63;99811.78;5104499;28;20493;-25
2023/07/30 07:58:30;;;;;;;8.15;3.00;;;;;;;30.10;34.33;99797.97;5104568;28;20030;-29
2023/07/30 08:00:58;;;;;;;5.67;2.73;;;;;;;30.34;33.26;99803.31;5104204;28;20044;-24
2023/07/30 08:03:26;;;;;;;6.82;2.95;;;;;;;30.36;34.37;99806.50;5104580;28;20435;-24
2023/07/30 08:05:52;;;;;;;7.63;3.03;;;;;;;30.70;34.03;99793.03;5104065;28;20026;-26
2023/07/30 08:08:18;;;;;;;6.40;3.13;;;;;;;30.58;33.02;99793.19;5104275;28;20019;-24
2023/07/30 08:10:46;;;;;;;5.65;3.00;;;;;;;30.59;32.63;99798.34;5103975;28;20112;-25
2023/07/30 08:13:11;;;;;;;5.28;2.65;;;;;;;30.84;33.08;99792.56;5104124;28;20023;-24
2023/07/30 08:15:36;;;;;;;5.13;2.97;;;;;;;30.71;33.13;99783.66;5104585;28;20031;-24
2023/07/30 08:18:05;;;;;;;7.95;2.72;;;;;;;30.51;33.46;99784.78;5104159;28;20442;-25
2023/07/30 08:20:30;;;;;;;5.15;2.67;;;;;;;30.89;32.57;99783.22;5104390;28;20027;-27
2023/07/30 08:22:55;;;;;;;4.75;2.70;;;;;;;31.35;32.44;99780.56;5104214;28;20065;-25
2023/07/30 08:25:21;;;;;;;5.20;2.70;;;;;;;31.41;31.83;99787.38;5103903;28;20030;-25
2023/07/30 08:27:46;;;;;;;5.25;2.65;;;;;;;31.23;31.56;99787.81;5104104;28;20039;-25
2023/07/30 08:30:12;;;;;;;8.75;3.00;;;;;;;31.15;31.88;99780.59;5104452;28;20039;-23
2023/07/30 08:32:43;;;;;;;4.65;2.67;;;;;;;30.95;31.74;99781.78;5104036;28;20020;-24
2023/07/30 08:35:09;;;;;;;8.52;2.90;;;;;;;31.22;32.00;99777.97;5103985;28;20035;-24
2023/07/30 08:37:35;;;;;;;5.43;2.70;;;;;;;31.30;31.19;99773.38;5104311;28;20036;-25
2023/07/30 08:40:00;;;;;;;4.32;2.80;;;;;;;31.50;31.05;99765.88;5104009;28;20027;-24
2023/07/30 08:42:26;;;;;;;5.05;2.70;;;;;;;31.52;31.03;99771.81;5104407;28;20060;-24
2023/07/30 08:44:51;;;;;;;6.03;2.90;;;;;;;31.62;31.47;99765.69;5103655;28;20135;-24
2023/07/30 08:47:19;;;;;;;6.93;2.92;;;;;;;32.18;30.36;99764.22;5106293;28;20088;-24
2023/07/30 08:49:47;;;;;;;4.88;2.60;;;;;;;32.07;29.14;99751.44;5107449;28;20508;-25
2023/07/30 08:52:13;;;;;;;5.50;2.47;;;;;;;31.74;29.60;99750.13;5108012;28;20062;-24
2023/07/30 08:54:40;;;;;;;4.73;2.83;;;;;;;32.03;29.85;99752.19;5108001;28;20034;-24
2023/07/30 08:57:07;;;;;;;5.53;2.45;;;;;;;32.11;30.05;99747.56;5107436;28;20027;-25
2023/07/30 08:59:57;;;;;;;6.32;2.70;;;;;;;32.50;29.27;99749.25;5107672;28;20536;-24
2023/07/30 09:02:41;;;;;;;5.40;2.50;;;;;;;32.72;29.07;99736.56;5107773;28;20084;-24
2023/07/30 09:05:07;;;;;;;5.68;2.50;;;;;;;32.73;29.60;99738.91;5107644;28;20063;-25
2023/07/30 09:07:32;;;;;;;4.70;2.40;;;;;;;32.78;28.86;99741.34;5107674;28;20068;-23
2023/07/30 09:10:00;;;;;;;5.22;2.30;;;;;;;32.66;28.97;99733.31;5108117;28;20051;-23
2023/07/30 09:12:30;;;;;;;5.90;2.50;;;;;;;32.92;26.08;99742.69;5107738;28;20039;-24
2023/07/30 09:14:56;;;;;;;5.03;2.28;;;;;;;33.14;27.57;99725.19;5106603;28;20081;-24
2023/07/30 09:17:21;;;;;;;4.10;2.35;;;;;;;32.79;27.44;99726.38;5107323;28;20036;-24
2023/07/30 09:19:47;;;;;;;4.43;2.42;;;;;;;32.69;28.09;99724.28;5107228;27;20023;-24
2023/07/30 09:22:12;;;;;;;3.42;2.28;;;;;;;32.92;27.73;99723.38;5107286;28;20024;-24
2023/07/30 09:24:43;;;;;;;5.85;2.50;;;;;;;33.24;27.31;99718.16;5107152;28;20474;-24
2023/07/30 09:27:09;;;;;;;4.03;2.50;;;;;;;33.57;27.88;99720.03;5106989;28;20027;-24
2023/07/30 09:29:34;;;;;;;4.20;2.50;;;;;;;33.74;26.59;99715.84;5107342;28;20034;-24
2023/07/30 09:32:02;;;;;;;4.45;2.42;;;;;;;33.71;28.04;99696.44;5106755;28;20566;-25
2023/07/30 09:34:30;;;;;;;6.60;2.63;;;;;;;33.51;27.20;99699.44;5107104;28;20526;-23
2023/07/30 09:36:56;;;;;;;3.88;2.55;;;;;;;33.66;27.45;99705.13;5107041;28;20105;-24
2023/07/30 09:39:25;;;;;;;4.75;2.47;;;;;;;33.94;26.21;99691.47;5107091;28;20063;-23
2023/07/30 09:41:53;;;;;;;4.68;2.72;;;;;;;33.75;26.97;99688.97;5106715;28;20146;-24
2023/07/30 09:44:20;;;;;;;5.57;2.38;;;;;;;34.03;27.28;99691.91;5107104;28;20043;-23
2023/07/30 09:46:48;;;;;;;4.15;2.28;;;;;;;33.84;26.10;99686.66;5106613;28;20109;-25
2023/07/30 09:49:14;;;;;;;5.05;2.45;;;;;;;34.18;26.29;99686.47;5106886;28;20027;-26
2023/07/30 09:51:40;;;;;;;5.40;2.28;;;;;;;34.11;26.11;99684.44;5106767;28;20580;-24
2023/07/30 09:54:11;;;;;;;5.45;2.15;;;;;;;34.09;25.00;99686.00;5106986;28;20055;-24
2023/07/30 09:56:37;;;;;;;9.77;3.25;;;;;;;34.16;26.36;99669.44;5106276;28;20027;-23
2023/07/30 09:59:05;;;;;;;5.73;2.67;;;;;;;34.26;25.28;99660.41;5105877;28;20023;-24
2023/07/30 10:01:32;;;;;;;6.70;2.60;;;;;;;34.47;25.76;99664.44;5106636;28;20572;-24
2023/07/30 10:03:58;;;;;;;4.18;2.70;;;;;;;34.70;24.74;99656.63;5106490;28;20110;-23
2023/07/30 10:06:27;;;;;;;6.47;2.25;;;;;;;34.90;25.34;99650.69;5106683;28;20169;-23
2023/07/30 10:08:54;;;;;;;4.10;2.47;;;;;;;35.17;23.94;99648.38;5106342;28;20031;-24
2023/07/30 10:11:20;;;;;;;6.53;2.67;;;;;;;35.61;24.30;99659.03;5106241;28;20118;-25
2023/07/30 10:13:46;;;;;;;6.32;2.30;;;;;;;35.26;23.41;99651.53;5106385;28;20142;-24
2023/07/30 10:16:12;;;;;;;4.10;2.30;;;;;;;35.10;24.07;99634.47;5106269;28;20019;-23
2023/07/30 10:18:42;;;;;;;5.90;3.00;;;;;;;35.52;23.51;99633.69;5106137;28;20089;-26
2023/07/30 10:21:09;;;;;;;3.78;2.45;;;;;;;35.51;24.82;99640.44;5106035;28;20038;-24
2023/07/30 10:23:35;;;;;;;9.77;3.15;;;;;;;35.40;23.34;99640.44;5106080;28;20072;-23
2023/07/30 10:26:10;;;;;;;4.03;2.13;;;;;;;35.34;23.00;99627.38;5106007;28;20425;-25
2023/07/30 10:28:43;;;;;;;5.47;3.35;;;;;;;35.29;24.25;99625.00;5106218;28;20054;-24
2023/07/30 10:31:09;;;;;;;4.18;2.55;;;;;;;35.38;24.42;99631.72;5105897;28;20649;-24
2023/07/30 10:33:45;;;;;;;8.90;2.70;;;;;;;35.75;23.34;99613.06;5105708;28;20028;-24
2023/07/30 10:36:11;;;;;;;6.60;2.75;;;;;;;36.13;23.70;99622.41;5105395;28;20051;-24
2023/07/30 10:38:36;;;;;;;4.55;2.30;;;;;;;36.31;23.60;99614.03;5105696;28;20648;-25
2023/07/30 10:41:08;;;;;;;3.92;2.28;;;;;;;36.21;22.59;99603.78;5105639;28;20032;-25
2023/07/30 10:43:38;;;;;;;4.25;2.33;;;;;;;36.11;23.77;99619.25;5098986;28;20055;-28
2023/07/30 10:46:04;;;;;;;4.07;2.35;;;;;;;36.26;23.27;99600.56;5098983;28;20081;-25
2023/07/30 10:48:33;;;;;;;3.83;2.53;;;;;;;36.26;22.63;99614.44;5105182;28;20048;-29
2023/07/30 10:51:01;;;;;;;11.00;9.07;;;;;;;36.38;22.55;99602.09;5105040;28;20024;-31
2023/07/30 10:53:27;;;;;;;5.82;2.90;;;;;;;36.50;23.49;99603.63;5102801;28;20803;-25
2023/07/30 10:55:53;;;;;;;5.07;2.83;;;;;;;36.61;22.62;99601.53;5104898;28;20115;-27
2023/07/30 10:58:18;;;;;;;5.13;2.92;;;;;;;36.71;22.06;99600.69;5104710;28;20032;-25
2023/07/30 11:00:44;;;;;;;5.15;2.45;;;;;;;36.59;20.41;99601.16;5104120;28;20047;-25
2023/07/30 11:03:09;;;;;;;5.43;2.75;;;;;;;36.85;21.64;99607.34;5104730;28;20081;-26
2023/07/30 11:05:38;;;;;;;4.10;2.55;;;;;;;36.90;22.02;99595.78;5103748;28;20020;-24
2023/07/30 11:08:04;;;;;;;5.43;2.60;;;;;;;37.06;21.73;99590.47;5104880;28;20020;-26
2023/07/30 11:10:29;;;;;;;3.72;2.70;;;;;;;36.87;23.06;99586.28;5102377;28;20035;-31
2023/07/30 11:12:57;;;;;;;4.22;2.40;;;;;;;37.28;22.81;99590.31;5104651;28;20024;-25
2023/07/30 11:15:22;;;;;;;4.45;2.55;;;;;;;37.57;20.41;99599.94;5104395;27;20034;-25
2023/07/30 11:17:49;;;;;;;5.40;2.70;;;;;;;37.45;21.19;99586.56;5104208;28;20023;-25
2023/07/30 11:20:27;;;;;;;4.80;2.47;;;;;;;37.59;20.51;99578.09;5104540;28;20019;-25
2023/07/30 11:22:54;;;;;;;5.50;2.80;;;;;;;37.29;21.08;99578.00;5102239;28;20110;-25
2023/07/30 11:25:19;;;;;;;6.73;3.07;;;;;;;37.34;20.52;99575.56;5104112;28;20500;-25